首页
METAR-TAF:

METAR-TAF

机场 :

哥伦比亚, 南卡罗来纳州, 美国

纬度: 33-56-31N, 经度: 081-07-05W, 海拔: 71米

当前天气观测

该预报发布于28分钟前的09:56 UTC
静风
温度 9°C
湿度 87%
气压 1017 hPa
能見度: 16.1公里
多云层高于15000英尺

METAR: KCAE 190956Z 00000KT 10SM BKN150 09/07 A3002 RMK AO2 SLP164 T00940072

时间: 06:24 (10:24 UTC)

预报

该预报发布于1小时和52分钟前的08:32 UTC
预报有效从19日的 09点(UTC)到 20日的 06点(UTC)
风速3节,风向多变
能見度: 10公里
多云层高于15000英尺
从 19日的 1000点(UTC)
风速6节,风向东转东北
能見度: 10公里
散云层高于5000英尺
阴天层高于10000英尺
短暂存在
从 19日的 13点(UTC)到 19日的 17点(UTC)
能見度: 9.7公里
多云层高于2500英尺
阴天层高于5000英尺
小阵雨
从 19日的 1700点(UTC)
风速10节,风向东转东北,有时为20节阵风
能見度: 4.8公里
散云层高于700英尺
阴天层高于1500英尺
小阵雨, 轻雾
从 19日的 2000点(UTC)
风速15节,风向东转东北,有时为25节阵风
能見度: 2.4公里
多云层高于700英尺
阴天层高于1000英尺
阵雨, 轻雾
从 20日的 0000点(UTC)
风速15节,风向东转东北,有时为25节阵风
能見度: 1.6公里
多云层高于700英尺
阴天层高于1000英尺
阵雨, 轻雾

TAF: KCAE 190832Z 1909/2006 VRB03KT P6SM BKN150 FM191000 07006KT P6SM SCT050 OVC100 TEMPO 1913/1917 6SM -SHRA BKN025 OVC050 FM191700 07010G20KT 3SM -SHRA BR SCT007 OVC015 WS020/12035KT FM192000 07015G25KT 1 1/2SM SHRA BR BKN007 OVC010 WS020/11045KT FM200000 06015G25KT 3SM SHRA BR BKN007 OVC010 WS020/14045KT

超过4000个机场的气象观测和天气预报(METAR&TAF报告)。

可查询的气象台以黄色和红色小点在地图上表示。

将鼠标移到小点上方,可查看气象台名称。

然后点击查看天气观测和预报。

如需切换地图:点击带黑十字的绿色按钮放大地图;点击带横线的绿色按钮缩小地图;或者点击绿色箭头查看邻近地区的地图。


METAR-TAF: